createdAt,value
2018-07-19T00:04:35.151Z,83.20
2018-07-19T00:11:58.829Z,82.70
2018-07-19T00:14:26.929Z,82.60
2018-07-19T00:16:54.776Z,82.50
2018-07-19T00:19:23.939Z,82.70
2018-07-19T00:21:52.675Z,82.60
2018-07-19T00:24:21.193Z,83.10
2018-07-19T00:26:49.068Z,82.40
2018-07-19T00:29:17.095Z,82.40
2018-07-19T00:34:13.279Z,82.10
2018-07-19T00:36:41.413Z,81.90
2018-07-19T00:39:09.785Z,81.60
2018-07-19T00:44:05.631Z,81.10
2018-07-19T00:46:34.541Z,81.00
2018-07-19T00:49:02.392Z,80.80
2018-07-19T00:56:26.402Z,80.20
2018-07-19T00:58:54.468Z,80.20
2018-07-19T01:03:50.093Z,80.10
2018-07-19T01:08:45.896Z,80.30
2018-07-19T01:11:13.753Z,80.20
2018-07-19T01:13:43.099Z,80.40
2018-07-19T01:16:11.490Z,80.20
2018-07-19T01:21:08.243Z,80.50
2018-07-19T01:23:36.692Z,80.20
2018-07-19T01:26:04.698Z,80.70
2018-07-19T01:28:33.569Z,80.30
2018-07-19T01:36:00.353Z,80.80
2018-07-19T01:40:55.940Z,81.10
2018-07-19T01:43:24.157Z,81.50
2018-07-19T01:48:28.725Z,82.10
2018-07-19T01:50:56.548Z,82.00
2018-07-19T01:55:54.282Z,81.60
2018-07-19T01:58:23.371Z,81.90
2018-07-19T02:00:55.908Z,81.80
2018-07-19T02:03:26.401Z,81.80
2018-07-19T02:05:56.593Z,81.60
2018-07-19T02:08:27.738Z,81.80
2018-07-19T02:10:58.623Z,82.30
2018-07-19T02:13:35.628Z,82.00
2018-07-19T02:16:06.194Z,82.00
2018-07-19T02:18:39.022Z,82.50
2018-07-19T02:23:42.425Z,82.00
2018-07-19T02:26:15.038Z,81.90
2018-07-19T02:28:46.557Z,81.80
2018-07-19T02:31:15.751Z,81.70
2018-07-19T02:33:47.192Z,81.70
2018-07-19T02:36:17.084Z,81.70
2018-07-19T02:38:49.789Z,81.80
2018-07-19T02:41:21.211Z,82.00
2018-07-19T02:43:52.485Z,81.90
2018-07-19T02:46:23.745Z,82.20
2018-07-19T02:49:02.044Z,82.70
2018-07-19T02:51:32.027Z,83.10
2018-07-19T02:54:02.668Z,83.20
2018-07-19T02:56:35.924Z,83.40
2018-07-19T02:59:08.678Z,83.40
2018-07-19T03:01:39.429Z,83.70
2018-07-19T03:04:08.672Z,83.40
2018-07-19T03:09:13.156Z,83.40
2018-07-19T03:11:52.222Z,83.20
2018-07-19T03:14:24.413Z,83.70
2018-07-19T03:16:56.227Z,83.50
2018-07-19T03:24:37.827Z,83.50
2018-07-19T03:27:10.274Z,83.80
2018-07-19T03:29:41.289Z,83.60
2018-07-19T03:32:12.258Z,83.90
2018-07-19T03:34:42.871Z,84.20
2018-07-19T03:37:13.341Z,84.00
2018-07-19T03:39:48.515Z,83.70
2018-07-19T03:42:25.565Z,83.60
2018-07-19T03:44:58.348Z,83.80
2018-07-19T03:47:30.695Z,83.70
2018-07-19T03:50:04.178Z,83.90
2018-07-19T03:55:08.430Z,84.10
2018-07-19T03:57:44.624Z,84.00
2018-07-19T04:02:48.013Z,84.40
2018-07-19T04:05:21.017Z,84.20
2018-07-19T04:07:51.895Z,84.20
2018-07-19T04:10:23.780Z,84.30
2018-07-19T04:15:26.934Z,84.40
2018-07-19T04:17:57.968Z,84.30
2018-07-19T04:20:31.654Z,84.10
2018-07-19T04:23:04.314Z,84.20
2018-07-19T04:25:35.242Z,84.30
2018-07-19T04:28:08.919Z,84.10
2018-07-19T04:30:42.303Z,84.30
2018-07-19T04:33:14.785Z,84.10
2018-07-19T04:35:45.243Z,83.90
2018-07-19T04:38:17.802Z,84.00
2018-07-19T04:40:49.413Z,83.80
2018-07-19T04:43:21.205Z,83.80
2018-07-19T04:45:52.158Z,83.50
2018-07-19T04:48:24.295Z,83.30
2018-07-19T04:50:54.923Z,83.90
2018-07-19T04:53:27.340Z,83.90
2018-07-19T04:55:58.356Z,84.10
2018-07-19T04:58:32.735Z,83.70
2018-07-19T05:01:03.789Z,83.70
2018-07-19T05:03:34.726Z,83.60
2018-07-19T05:06:08.012Z,83.30
2018-07-19T05:08:42.475Z,83.20
2018-07-19T05:13:42.252Z,82.90
2018-07-19T05:16:11.356Z,82.20
2018-07-19T05:18:42.027Z,82.30
2018-07-19T05:21:12.063Z,81.70
2018-07-19T05:23:40.758Z,81.60
2018-07-19T05:26:10.905Z,80.40
2018-07-19T05:28:39.886Z,80.40
2018-07-19T05:31:08.283Z,80.20
2018-07-19T05:33:37.561Z,79.60
2018-07-19T05:36:06.192Z,79.20
2018-07-19T05:38:34.399Z,78.80
2018-07-19T05:41:03.858Z,78.30
2018-07-19T05:46:00.825Z,77.10
2018-07-19T05:48:29.363Z,76.80
2018-07-19T05:50:57.930Z,75.70
2018-07-19T05:53:28.956Z,76.60
2018-07-19T05:55:57.776Z,75.60
2018-07-19T05:58:26.181Z,74.70
2018-07-19T06:00:56.142Z,75.20
2018-07-19T06:05:53.797Z,74.90
2018-07-19T06:08:22.460Z,75.20
2018-07-19T06:10:50.325Z,74.70
2018-07-19T06:13:18.646Z,75.00
2018-07-19T06:15:46.823Z,74.30
2018-07-19T06:18:16.275Z,74.50
2018-07-19T06:20:44.151Z,74.00
2018-07-19T06:23:12.283Z,73.30
2018-07-19T06:25:41.399Z,73.40
2018-07-19T06:28:09.918Z,73.10
2018-07-19T06:30:38.539Z,73.20
2018-07-19T06:33:06.591Z,72.90
2018-07-19T06:35:34.455Z,73.00
2018-07-19T06:40:30.464Z,74.10
2018-07-19T06:42:58.328Z,72.70
2018-07-19T06:45:27.843Z,73.40
2018-07-19T06:47:55.756Z,73.50
2018-07-19T06:50:24.143Z,73.90
2018-07-19T06:52:52.914Z,73.70
2018-07-19T06:55:21.173Z,73.50
2018-07-19T06:57:49.075Z,74.40
2018-07-19T07:00:17.843Z,73.50
2018-07-19T07:07:41.450Z,75.00
2018-07-19T07:10:10.100Z,73.20
2018-07-19T07:12:38.686Z,72.90
2018-07-19T07:15:07.925Z,74.00
2018-07-19T07:17:35.748Z,73.30
2018-07-19T07:20:04.005Z,73.30
2018-07-19T07:22:32.180Z,73.50
2018-07-19T07:25:00.035Z,73.10
2018-07-19T07:27:28.506Z,72.60
2018-07-19T07:29:57.383Z,72.50
2018-07-19T07:32:25.273Z,73.80
2018-07-19T07:34:53.125Z,73.50
2018-07-19T07:37:21.894Z,73.40
2018-07-19T07:39:49.766Z,73.70
2018-07-19T07:42:17.617Z,73.20
2018-07-19T07:44:46.329Z,73.10
2018-07-19T07:47:14.193Z,73.50
2018-07-19T07:49:42.041Z,75.30
2018-07-19T07:52:10.324Z,74.40
2018-07-19T07:54:38.127Z,72.60
2018-07-19T07:57:06.802Z,73.50
2018-07-19T07:59:34.899Z,73.20
2018-07-19T08:02:02.810Z,73.40
2018-07-19T08:06:58.622Z,73.20
2018-07-19T08:09:26.462Z,73.10
2018-07-19T08:11:55.134Z,72.40
2018-07-19T08:14:23.182Z,72.70
2018-07-19T08:16:51.711Z,73.00
2018-07-19T08:19:19.566Z,73.70
2018-07-19T08:21:47.929Z,73.10
2018-07-19T08:24:15.898Z,71.40
2018-07-19T08:26:43.764Z,70.80
2018-07-19T08:34:08.217Z,70.00
2018-07-19T08:36:36.376Z,70.50
2018-07-19T08:39:07.596Z,69.40
2018-07-19T08:41:35.438Z,66.70
2018-07-19T08:44:03.617Z,67.80
2018-07-19T08:48:59.784Z,69.60
2018-07-19T08:51:28.242Z,68.40
2018-07-19T08:53:56.709Z,68.40
2018-07-19T08:56:24.596Z,68.80
2018-07-19T08:58:53.089Z,70.60
2018-07-19T09:01:20.988Z,68.90
2018-07-19T09:03:48.883Z,69.40
2018-07-19T09:06:17.200Z,68.80
2018-07-19T09:08:46.192Z,69.10
2018-07-19T09:13:42.034Z,68.80
2018-07-19T09:16:09.897Z,66.60
2018-07-19T09:18:37.927Z,68.10
2018-07-19T09:21:06.238Z,67.20
2018-07-19T09:26:01.816Z,66.90
2018-07-19T09:28:30.051Z,66.10
2018-07-19T09:30:58.535Z,67.40
2018-07-19T09:33:26.388Z,66.80
2018-07-19T09:38:22.471Z,68.10
2018-07-19T09:43:18.580Z,65.20
2018-07-19T09:45:46.405Z,65.60
2018-07-19T09:48:14.241Z,65.90
2018-07-19T09:50:42.702Z,65.10
2018-07-19T09:58:06.809Z,65.40
2018-07-19T10:00:41.430Z,65.20
2018-07-19T10:05:37.264Z,64.00
2018-07-19T10:08:05.118Z,63.30
2018-07-19T10:13:05.381Z,64.00
2018-07-19T10:15:34.179Z,63.50
2018-07-19T10:18:02.397Z,64.40
2018-07-19T10:20:30.271Z,63.40
2018-07-19T10:22:58.383Z,64.40
2018-07-19T10:27:54.573Z,58.90
2018-07-19T10:30:23.518Z,61.70
2018-07-19T10:32:51.345Z,62.10
2018-07-19T10:35:19.180Z,60.70
2018-07-19T10:37:47.263Z,60.00
2018-07-19T10:40:15.086Z,57.60
2018-07-19T10:42:42.925Z,59.10
2018-07-19T10:45:11.836Z,59.30
2018-07-19T10:50:08.022Z,60.50
2018-07-19T10:52:36.066Z,57.60
2018-07-19T10:57:31.649Z,59.70
2018-07-19T11:02:27.531Z,60.80
2018-07-19T11:04:56.014Z,59.80
2018-07-19T11:09:51.821Z,58.10
2018-07-19T11:12:20.236Z,59.80
2018-07-19T11:14:48.391Z,56.70
2018-07-19T11:17:16.333Z,58.40
2018-07-19T11:19:44.170Z,60.10
2018-07-19T11:22:12.304Z,59.20
2018-07-19T11:24:40.119Z,58.90
2018-07-19T11:27:08.058Z,59.10
2018-07-19T11:29:36.315Z,61.50
2018-07-19T11:32:04.169Z,59.70
2018-07-19T11:34:32.924Z,58.20
2018-07-19T11:37:00.908Z,57.90
2018-07-19T11:39:29.045Z,59.10
2018-07-19T11:41:56.974Z,57.50
2018-07-19T11:44:25.355Z,58.90
2018-07-19T11:46:53.172Z,59.90
2018-07-19T11:49:21.002Z,58.30
2018-07-19T11:56:44.398Z,57.80
2018-07-19T11:59:12.788Z,57.90
2018-07-19T12:01:40.628Z,55.80
2018-07-19T12:04:08.435Z,56.70
2018-07-19T12:06:36.478Z,56.60
2018-07-19T12:11:33.961Z,59.00
2018-07-19T12:14:01.995Z,58.30
2018-07-19T12:16:29.815Z,56.40
2018-07-19T12:18:57.827Z,57.50
2018-07-19T12:21:25.898Z,56.90
2018-07-19T12:23:54.417Z,56.60
2018-07-19T12:28:50.241Z,56.20
2018-07-19T12:31:18.127Z,56.70
2018-07-19T12:33:46.253Z,54.10
2018-07-19T12:36:14.252Z,54.20
2018-07-19T12:38:42.070Z,55.20
2018-07-19T12:41:10.512Z,53.60
2018-07-19T12:48:34.573Z,51.50
2018-07-19T12:51:02.800Z,52.70
2018-07-19T12:55:58.778Z,52.20
2018-07-19T12:58:27.000Z,52.40
2018-07-19T13:00:54.823Z,52.10
2018-07-19T13:03:23.219Z,51.00
2018-07-19T13:05:51.298Z,51.90
2018-07-19T13:08:19.981Z,51.70
2018-07-19T13:10:47.805Z,51.10
2018-07-19T13:13:15.877Z,52.50
2018-07-19T13:15:44.280Z,51.30
2018-07-19T13:18:12.097Z,52.00
2018-07-19T13:20:40.269Z,48.40
2018-07-19T13:23:08.084Z,50.90
2018-07-19T13:25:36.589Z,50.80
2018-07-19T13:28:04.785Z,50.00
2018-07-19T13:30:32.673Z,49.90
2018-07-19T13:35:28.364Z,49.70
2018-07-19T13:37:56.219Z,48.50
2018-07-19T13:40:24.031Z,48.90
2018-07-19T13:47:48.379Z,47.50
2018-07-19T13:50:16.515Z,48.60
2018-07-19T13:52:55.769Z,48.60
2018-07-19T13:55:24.436Z,48.80
2018-07-19T13:57:52.261Z,49.20
2018-07-19T14:00:20.115Z,49.50
2018-07-19T14:02:48.360Z,48.50
2018-07-19T14:05:16.221Z,47.90
2018-07-19T14:10:12.657Z,47.40
2018-07-19T14:12:41.083Z,46.90
2018-07-19T14:15:08.943Z,47.50
2018-07-19T14:17:36.982Z,49.10
2018-07-19T14:20:04.883Z,49.60
2018-07-19T14:22:32.732Z,46.30
2018-07-19T14:27:29.143Z,47.60
2018-07-19T14:29:57.095Z,45.90
2018-07-19T14:32:25.144Z,44.50
2018-07-19T14:34:52.939Z,46.50
2018-07-19T14:37:21.704Z,45.30
2018-07-19T14:39:49.822Z,47.50
2018-07-19T14:42:17.689Z,48.10
2018-07-19T14:44:45.508Z,48.50
2018-07-19T14:47:13.532Z,47.10
2018-07-19T14:49:42.019Z,46.40
2018-07-19T14:52:09.885Z,46.50
2018-07-19T14:54:37.994Z,46.10
2018-07-19T14:57:06.110Z,45.90
2018-07-19T14:59:34.031Z,47.00
2018-07-19T15:02:02.071Z,47.50
2018-07-19T15:06:57.580Z,47.00
2018-07-19T15:09:25.678Z,47.00
2018-07-19T15:14:21.294Z,45.00
2018-07-19T15:16:50.144Z,46.30
2018-07-19T15:19:18.519Z,45.50
2018-07-19T15:21:47.264Z,45.40
2018-07-19T15:24:15.326Z,44.70
2018-07-19T15:26:43.167Z,44.10
2018-07-19T15:29:11.645Z,45.20
2018-07-19T15:31:39.756Z,45.20
2018-07-19T15:34:09.312Z,46.50
2018-07-19T15:36:37.957Z,46.10
2018-07-19T15:41:34.693Z,45.10
2018-07-19T15:44:02.557Z,44.70
2018-07-19T15:46:31.658Z,45.90
2018-07-19T15:53:55.054Z,43.70
2018-07-19T15:56:23.796Z,43.50
2018-07-19T15:58:51.643Z,44.10
2018-07-19T16:01:20.220Z,44.30
2018-07-19T16:06:15.796Z,43.30
2018-07-19T16:08:43.796Z,43.60
2018-07-19T16:11:12.376Z,42.50
2018-07-19T16:16:07.882Z,41.20
2018-07-19T16:18:35.980Z,41.90
2018-07-19T16:21:03.806Z,42.50
2018-07-19T16:23:31.657Z,41.50
2018-07-19T16:25:59.699Z,42.90
2018-07-19T16:30:55.168Z,43.30
2018-07-19T16:33:23.290Z,43.40
2018-07-19T16:35:51.399Z,44.10
2018-07-19T16:38:19.196Z,43.70
2018-07-19T16:40:47.778Z,44.60
2018-07-19T16:43:16.262Z,44.80
2018-07-19T16:45:44.757Z,45.40
2018-07-19T16:48:12.834Z,44.00
2018-07-19T16:50:41.126Z,44.80
2018-07-19T16:53:09.579Z,45.90
2018-07-19T16:55:38.254Z,46.00
2018-07-19T16:58:06.547Z,46.20
2018-07-19T17:00:34.350Z,47.70
2018-07-19T17:05:30.121Z,45.60
2018-07-19T17:07:59.143Z,45.60
2018-07-19T17:10:27.141Z,46.40
2018-07-19T17:15:23.493Z,46.00
2018-07-19T17:20:19.695Z,45.10
2018-07-19T17:22:47.580Z,45.60
2018-07-19T17:25:15.668Z,45.60
2018-07-19T17:27:43.487Z,46.40
2018-07-19T17:30:11.875Z,44.70
2018-07-19T17:32:39.983Z,46.50
2018-07-19T17:35:08.525Z,46.00
2018-07-19T17:37:36.959Z,47.20
2018-07-19T17:42:32.871Z,47.40
2018-07-19T17:45:01.846Z,47.80
2018-07-19T17:47:30.001Z,47.80
2018-07-19T17:49:58.455Z,48.30
2018-07-19T17:52:26.287Z,48.80
2018-07-19T17:54:54.358Z,49.30
2018-07-19T17:57:22.220Z,48.80
2018-07-19T17:59:50.043Z,48.60
2018-07-19T18:02:18.066Z,49.00
2018-07-19T18:04:45.863Z,50.50
2018-07-19T18:14:39.018Z,51.40
2018-07-19T18:17:07.337Z,52.10
2018-07-19T18:22:03.487Z,52.70
2018-07-19T18:27:00.408Z,53.30
2018-07-19T18:29:28.232Z,53.00
2018-07-19T18:31:57.024Z,53.10
2018-07-19T18:34:24.866Z,52.60
2018-07-19T18:39:20.840Z,52.80
2018-07-19T18:41:48.672Z,52.60
2018-07-19T18:44:16.602Z,52.50
2018-07-19T18:46:45.240Z,52.80
2018-07-19T18:49:13.067Z,52.80
2018-07-19T18:51:40.921Z,53.30
2018-07-19T18:54:09.028Z,53.80
2018-07-19T18:56:37.350Z,53.40
2018-07-19T18:59:05.721Z,54.00
2018-07-19T19:01:35.304Z,53.90
2018-07-19T19:04:03.726Z,53.80
2018-07-19T19:06:33.554Z,54.50
2018-07-19T19:09:01.650Z,54.20
2018-07-19T19:11:29.465Z,54.20
2018-07-19T19:13:57.936Z,54.40
2018-07-19T19:16:26.777Z,54.50
2018-07-19T19:18:54.580Z,54.50
2018-07-19T19:21:22.940Z,55.80
2018-07-19T19:23:51.010Z,55.30
2018-07-19T19:26:19.158Z,56.10
2018-07-19T19:31:16.445Z,58.30
2018-07-19T19:36:13.293Z,58.10
2018-07-19T19:38:41.489Z,59.00
2018-07-19T19:46:05.298Z,64.20
2018-07-19T19:51:06.356Z,64.70
2018-07-19T19:56:02.451Z,64.70
2018-07-19T19:58:30.520Z,64.90
2018-07-19T20:00:58.600Z,65.40
2018-07-19T20:03:26.787Z,66.10
2018-07-19T20:05:56.012Z,67.10
2018-07-19T20:10:51.558Z,68.20
2018-07-19T20:13:19.557Z,68.80
2018-07-19T20:15:47.432Z,68.40
2018-07-19T20:18:15.888Z,68.40
2018-07-19T20:20:44.149Z,68.00
2018-07-19T20:23:11.959Z,67.90
2018-07-19T20:25:39.803Z,68.10
2018-07-19T20:28:07.977Z,69.70
2018-07-19T20:30:36.406Z,69.30
2018-07-19T20:33:04.256Z,69.70
2018-07-19T20:35:32.871Z,69.70
2018-07-19T20:38:00.672Z,70.00
2018-07-19T20:40:28.555Z,70.40
2018-07-19T20:42:56.715Z,70.80
2018-07-19T20:45:25.598Z,71.30
2018-07-19T20:47:53.398Z,71.60
2018-07-19T20:50:22.224Z,71.50
2018-07-19T20:55:20.139Z,72.40
2018-07-19T20:57:48.994Z,72.80
2018-07-19T21:00:18.197Z,72.70
2018-07-19T21:02:46.975Z,73.00
2018-07-19T21:05:15.776Z,72.80
2018-07-19T21:07:43.600Z,72.90
2018-07-19T21:10:11.478Z,72.80
2018-07-19T21:12:39.628Z,73.10
2018-07-19T21:15:08.196Z,73.40
2018-07-19T21:17:36.045Z,74.00
2018-07-19T21:20:05.006Z,73.60
2018-07-19T21:22:33.508Z,74.10
2018-07-19T21:27:29.243Z,74.00
2018-07-19T21:29:58.736Z,74.50
2018-07-19T21:32:27.120Z,74.60
2018-07-19T21:34:55.907Z,74.70
2018-07-19T21:37:24.359Z,74.20
2018-07-19T21:39:52.170Z,74.40
2018-07-19T21:47:15.632Z,74.40
2018-07-19T21:49:44.273Z,74.40
2018-07-19T21:52:12.523Z,75.40
2018-07-19T21:59:38.064Z,76.70
2018-07-19T22:09:30.838Z,76.60
2018-07-19T22:11:59.100Z,77.10
2018-07-19T22:14:27.722Z,77.50
2018-07-19T22:16:56.229Z,77.40
2018-07-19T22:19:24.381Z,77.50
2018-07-19T22:24:19.908Z,78.80
2018-07-19T22:26:48.077Z,78.70
2018-07-19T22:29:16.528Z,78.90
2018-07-19T22:31:44.881Z,78.60
2018-07-19T22:34:12.917Z,79.80
2018-07-19T22:39:10.149Z,80.00
2018-07-19T22:41:38.453Z,79.70
2018-07-19T22:46:34.071Z,79.50
2018-07-19T22:49:02.128Z,80.10
2018-07-19T22:51:30.609Z,80.10
2018-07-19T22:53:58.747Z,80.20
2018-07-19T22:56:26.970Z,80.90
2018-07-19T22:58:55.302Z,80.90
2018-07-19T23:01:23.834Z,80.80
2018-07-19T23:03:52.034Z,80.30
2018-07-19T23:06:19.867Z,81.40
2018-07-19T23:08:49.005Z,80.90
2018-07-19T23:11:17.161Z,81.00
2018-07-19T23:13:45.611Z,81.10
2018-07-19T23:16:13.515Z,81.60
2018-07-19T23:18:42.308Z,81.80
2018-07-19T23:21:10.209Z,82.00
2018-07-19T23:23:38.064Z,82.60
2018-07-19T23:26:06.107Z,82.30
2018-07-19T23:31:02.111Z,82.10
2018-07-19T23:33:30.316Z,82.20
2018-07-19T23:36:01.185Z,82.40
2018-07-19T23:38:35.018Z,83.00
2018-07-19T23:41:05.736Z,82.70
2018-07-19T23:43:37.855Z,83.20
2018-07-19T23:48:42.297Z,83.00
2018-07-19T23:51:10.345Z,83.30
2018-07-19T23:53:38.288Z,83.20
2018-07-19T23:56:07.328Z,84.00
2018-07-19T23:58:35.178Z,84.00
